TFFR/PTP METAR and TAF weather

Enter ICAO airport designator
Station Type Date Time Source
TFFR METAR 2022/08/16 18:00 UTC NOAA

TFFR 161800Z AUTO 11009KT 070V150 9999 BKN038 BKN044 32/23 Q1014 TEMPO 4000 SHRA FEW020TCU


Station Type Date Time Source
TFFR Decoded METAR 2022/08/16 18:00 UTC NOAA

Le Raizet, Guadeloupe, Guadeloupe (TFFR) 16-16N 061-31W 11M
Aug 16, 2022 - 02:00 PM EDT / 2022.08.16 1800 UTC
Wind: from the ESE (110 degrees) at 10 MPH (9 KT) (direction variable):0
Visibility: greater than 7 mile(s):0
Sky conditions: mostly cloudy
Weather: Towering cumulus clouds observed
Temperature: 89 F (32 C)
Heat index: 96.8 F (36.0 C):1
Dew Point: 73 F (23 C)
Relative Humidity: 59%
Pressure (altimeter): 29.94 in. Hg (1014 hPa)
ob: TFFR 161800Z AUTO 11009KT 070V150 9999 BKN038 BKN044 32/23 Q1014 TEMPO 4000 SHRA FEW020TCU
cycle: 18

Station Type Date Time Source
TFFR TAF 2022/08/16 18:52 UTC NOAA

TAF TFFR 161700Z 1618/1718 12010KT 9999 SCT025 SCT050 PROB30
TEMPO 1618/1624 4000 SHRA FEW020TCU
BECMG 1700/1702 VRB02KT
BECMG 1710/1712 10010KT PROB30
TEMPO 1716/1718 3500 SHRA FEW018TCU

Example: see airport list